Nichioh Maru — JD3267 — position and weather

sailwx.info

Track history (hours):
 
Tides and Currents Weather Stations Pressure Air Temp Water Temp Dewpoint Dewpoint Depression Visibility Wind Speed Wind Dir Waves Ship Positions

Nichioh Maru

Last reported at 2017-Feb-26 21:33 UTC. Time now 2017-Feb-26 21:42 UTC.
Position N 34°30' E 135°09'.

Length 170 m; draft 6.5 m.

Type: Cargo ship. MMSI: 431003232.

Date/timePositionNaut miles runAvg speedWind from/ knotsBaromVisibWave heightAir tempDewpointWater temp
2017-Feb-26 21:33N 34°30' E 135°09'1616.5
2017-Feb-26 20:33N 34°15' E 134°60'1717.4
2017-Feb-26 19:33N 33°58' E 134°59'230 8.1
2017-Feb-25 15:07N 34°58' E 139°28'1120.6
2017-Feb-25 14:33N 35°05' E 139°40'1413.7
2017-Feb-25 13:34N 35°18' E 139°44'1212.3
2017-Feb-25 12:33N 35°30' E 139°46'0 0.1
2017-Feb-25 11:31N 35°30' E 139°46'0 0.0
2017-Feb-25 10:31N 35°30' E 139°46'0 0.0
2017-Feb-25 09:31N 35°30' E 139°46'0 0.0
2017-Feb-25 08:31N 35°30' E 139°46'0 0.0
2017-Feb-25 07:31N 35°30' E 139°46'0 0.0
2017-Feb-25 06:31N 35°30' E 139°46'0 0.0
2017-Feb-25 05:31N 35°30' E 139°46'0 0.0
2017-Feb-25 04:31N 35°30' E 139°46'3 2.8
2017-Feb-25 03:33N 35°29' E 139°43'10 9.9
2017-Feb-25 02:33N 35°19' E 139°42'3 2.6
2017-Feb-25 01:33N 35°19' E 139°39'0 0.0
2017-Feb-25 00:33N 35°19' E 139°39'0 0.0
2017-Feb-24 23:33N 35°19' E 139°39'0 0.0
2017-Feb-24 22:33N 35°19' E 139°39'1 0.5
2017-Feb-24 21:33N 35°19' E 139°40'10 9.5
2017-Feb-24 20:33N 35°11' E 139°46'1312.7
2017-Feb-24 19:33N 35°01' E 139°38'23616.4
2017-Feb-24 05:07N 34°07' E 134°58'1521.7
2017-Feb-24 04:25N 34°22' E 135°01'1820.4
2017-Feb-24 03:34N 34°35' E 135°15'6 6.1
2017-Feb-24 02:33N 34°41' E 135°13'0 0.0
2017-Feb-24 01:21N 34°41' E 135°13'0 0.0
2017-Feb-24 00:33N 34°41' E 135°13'0 0.0
2017-Feb-23 23:33N 34°41' E 135°13'3 3.4
2017-Feb-23 22:34N 34°38' E 135°16'2 1.6
2017-Feb-23 21:28N 34°36' E 135°16'0 0.1
2017-Feb-23 20:31N 34°36' E 135°16'0 0.0
2017-Feb-23 19:28N 34°36' E 135°16'0 0.0
2017-Feb-23 18:28N 34°36' E 135°16'0 0.1
2017-Feb-23 17:31N 34°36' E 135°16'0 0.0
2017-Feb-23 16:28N 34°36' E 135°16'0 0.0
2017-Feb-23 15:28N 34°36' E 135°16'0 0.1
2017-Feb-23 14:28N 34°36' E 135°16'0 0.0
2017-Feb-23 13:22N 34°36' E 135°16'0 0.1
2017-Feb-23 12:28N 34°36' E 135°16'1212.8
2017-Feb-23 11:33N 34°37' E 135°02'116 6.4
2017-Feb-22 17:17N 34°02' E 132°47'1115.7
2017-Feb-22 16:33N 33°54' E 132°38'1716.8
2017-Feb-22 15:32N 33°45' E 132°20'21 1.8
2017-Feb-22 04:22N 33°46' E 131°56'1720.6
2017-Feb-22 03:33N 33°50' E 132°15'1615.7
2017-Feb-22 02:32N 34°01' E 132°29'15 1.0
2017-Feb-21 11:05N 34°14' E 132°20'1119.3
2017-Feb-21 10:31N 34°04' E 132°26'125 4.1
2017-Feb-20 04:07N 34°35' E 134°52'916.9
2017-Feb-20 03:33N 34°36' E 135°03'10 9.6
2017-Feb-20 02:33N 34°41' E 135°14'0 0.1
2017-Feb-20 01:32N 34°41' E 135°13'0 0.0
2017-Feb-20 00:32N 34°41' E 135°13'2 1.6
2017-Feb-19 23:33N 34°40' E 135°15'1717.2
2017-Feb-19 22:33N 34°25' E 135°06'2019.7
2017-Feb-19 21:33N 34°06' E 135°00'231 7.2
2017-Feb-18 13:33N 35°01' E 139°32'1514.7
2017-Feb-18 12:34N 35°10' E 139°46'1111.1
2017-Feb-18 11:34N 35°21' E 139°42'10 9.6
2017-Feb-18 10:33N 35°30' E 139°46'0 0.0
2017-Feb-18 09:31N 35°30' E 139°46'0 0.0
2017-Feb-18 08:31N 35°30' E 139°46'0 0.0
2017-Feb-18 07:31N 35°30' E 139°46'0 0.0
2017-Feb-18 06:31N 35°30' E 139°46'0 0.0
2017-Feb-18 05:31N 35°30' E 139°46'3 2.8
2017-Feb-18 04:33N 35°29' E 139°43'8 7.6
2017-Feb-18 03:34N 35°22' E 139°45'6 6.1
2017-Feb-18 02:33N 35°19' E 139°39'0 0.0
2017-Feb-18 01:31N 35°19' E 139°39'0 0.0
2017-Feb-18 00:31N 35°19' E 139°39'0 0.0
2017-Feb-17 23:31N 35°19' E 139°39'5 5.3
2017-Feb-17 22:33N 35°17' E 139°45'1413.7
2017-Feb-17 21:33N 35°04' E 139°45'24417.4
2017-Feb-17 07:30N 33°57' E 134°59'2121.1
2017-Feb-17 06:30N 34°18' E 134°59'1920.0
2017-Feb-17 05:33N 34°32' E 135°13'8 7.0
2017-Feb-17 04:23N 34°41' E 135°13'0 0.0
2017-Feb-17 03:23N 34°41' E 135°13'0 0.0
2017-Feb-17 02:29N 34°41' E 135°13'0 0.0
2017-Feb-17 01:29N 34°41' E 135°13'0 0.0
2017-Feb-17 00:23N 34°41' E 135°13'0 0.0
2017-Feb-16 23:29N 34°41' E 135°13'2 1.9
2017-Feb-16 22:33N 34°40' E 135°15'  
Track history (hours):
 
Tides and Currents Weather Stations Pressure Air Temp Water Temp Dewpoint Dewpoint Depression Visibility Wind Speed Wind Dir Waves Ship Positions

Nichioh Maru

Last reported at 2017-Feb-26 21:33 UTC. Time now 2017-Feb-26 21:42 UTC.
Position N 34°30' E 135°09'.

Length 170 m; draft 6.5 m.

Type: Cargo ship. MMSI: 431003232.

Date/timePositionNaut miles runAvg speedWind from/ knotsBaromVisibWave heightAir tempDewpointWater temp
2017-Feb-26 21:33N 34°30' E 135°09'1616.5
2017-Feb-26 20:33N 34°15' E 134°60'1717.4
2017-Feb-26 19:33N 33°58' E 134°59'230 8.1
2017-Feb-25 15:07N 34°58' E 139°28'1120.6
2017-Feb-25 14:33N 35°05' E 139°40'1413.7
2017-Feb-25 13:34N 35°18' E 139°44'1212.3
2017-Feb-25 12:33N 35°30' E 139°46'0 0.1
2017-Feb-25 11:31N 35°30' E 139°46'0 0.0
2017-Feb-25 10:31N 35°30' E 139°46'0 0.0
2017-Feb-25 09:31N 35°30' E 139°46'0 0.0
2017-Feb-25 08:31N 35°30' E 139°46'0 0.0
2017-Feb-25 07:31N 35°30' E 139°46'0 0.0
2017-Feb-25 06:31N 35°30' E 139°46'0 0.0
2017-Feb-25 05:31N 35°30' E 139°46'0 0.0
2017-Feb-25 04:31N 35°30' E 139°46'3 2.8
2017-Feb-25 03:33N 35°29' E 139°43'10 9.9
2017-Feb-25 02:33N 35°19' E 139°42'3 2.6
2017-Feb-25 01:33N 35°19' E 139°39'0 0.0
2017-Feb-25 00:33N 35°19' E 139°39'0 0.0
2017-Feb-24 23:33N 35°19' E 139°39'0 0.0
2017-Feb-24 22:33N 35°19' E 139°39'1 0.5
2017-Feb-24 21:33N 35°19' E 139°40'10 9.5
2017-Feb-24 20:33N 35°11' E 139°46'1312.7
2017-Feb-24 19:33N 35°01' E 139°38'23616.4
2017-Feb-24 05:07N 34°07' E 134°58'1521.7
2017-Feb-24 04:25N 34°22' E 135°01'1820.4
2017-Feb-24 03:34N 34°35' E 135°15'6 6.1
2017-Feb-24 02:33N 34°41' E 135°13'0 0.0
2017-Feb-24 01:21N 34°41' E 135°13'0 0.0
2017-Feb-24 00:33N 34°41' E 135°13'0 0.0
2017-Feb-23 23:33N 34°41' E 135°13'3 3.4
2017-Feb-23 22:34N 34°38' E 135°16'2 1.6
2017-Feb-23 21:28N 34°36' E 135°16'0 0.1
2017-Feb-23 20:31N 34°36' E 135°16'0 0.0
2017-Feb-23 19:28N 34°36' E 135°16'0 0.0
2017-Feb-23 18:28N 34°36' E 135°16'0 0.1
2017-Feb-23 17:31N 34°36' E 135°16'0 0.0
2017-Feb-23 16:28N 34°36' E 135°16'0 0.0
2017-Feb-23 15:28N 34°36' E 135°16'0 0.1
2017-Feb-23 14:28N 34°36' E 135°16'0 0.0
2017-Feb-23 13:22N 34°36' E 135°16'0 0.1
2017-Feb-23 12:28N 34°36' E 135°16'1212.8
2017-Feb-23 11:33N 34°37' E 135°02'116 6.4
2017-Feb-22 17:17N 34°02' E 132°47'1115.7
2017-Feb-22 16:33N 33°54' E 132°38'1716.8
2017-Feb-22 15:32N 33°45' E 132°20'21 1.8
2017-Feb-22 04:22N 33°46' E 131°56'1720.6
2017-Feb-22 03:33N 33°50' E 132°15'1615.7
2017-Feb-22 02:32N 34°01' E 132°29'15 1.0
2017-Feb-21 11:05N 34°14' E 132°20'1119.3
2017-Feb-21 10:31N 34°04' E 132°26'125 4.1
2017-Feb-20 04:07N 34°35' E 134°52'916.9
2017-Feb-20 03:33N 34°36' E 135°03'10 9.6
2017-Feb-20 02:33N 34°41' E 135°14'0 0.1
2017-Feb-20 01:32N 34°41' E 135°13'0 0.0
2017-Feb-20 00:32N 34°41' E 135°13'2 1.6
2017-Feb-19 23:33N 34°40' E 135°15'1717.2
2017-Feb-19 22:33N 34°25' E 135°06'2019.7
2017-Feb-19 21:33N 34°06' E 135°00'231 7.2
2017-Feb-18 13:33N 35°01' E 139°32'1514.7
2017-Feb-18 12:34N 35°10' E 139°46'1111.1
2017-Feb-18 11:34N 35°21' E 139°42'10 9.6
2017-Feb-18 10:33N 35°30' E 139°46'0 0.0
2017-Feb-18 09:31N 35°30' E 139°46'0 0.0
2017-Feb-18 08:31N 35°30' E 139°46'0 0.0
2017-Feb-18 07:31N 35°30' E 139°46'0 0.0
2017-Feb-18 06:31N 35°30' E 139°46'0 0.0
2017-Feb-18 05:31N 35°30' E 139°46'3 2.8
2017-Feb-18 04:33N 35°29' E 139°43'8 7.6
2017-Feb-18 03:34N 35°22' E 139°45'6 6.1
2017-Feb-18 02:33N 35°19' E 139°39'0 0.0
2017-Feb-18 01:31N 35°19' E 139°39'0 0.0
2017-Feb-18 00:31N 35°19' E 139°39'0 0.0
2017-Feb-17 23:31N 35°19' E 139°39'5 5.3
2017-Feb-17 22:33N 35°17' E 139°45'1413.7
2017-Feb-17 21:33N 35°04' E 139°45'24417.4
2017-Feb-17 07:30N 33°57' E 134°59'2121.1
2017-Feb-17 06:30N 34°18' E 134°59'1920.0
2017-Feb-17 05:33N 34°32' E 135°13'8 7.0
2017-Feb-17 04:23N 34°41' E 135°13'0 0.0
2017-Feb-17 03:23N 34°41' E 135°13'0 0.0
2017-Feb-17 02:29N 34°41' E 135°13'0 0.0
2017-Feb-17 01:29N 34°41' E 135°13'0 0.0
2017-Feb-17 00:23N 34°41' E 135°13'0 0.0
2017-Feb-16 23:29N 34°41' E 135°13'2 1.9
2017-Feb-16 22:33N 34°40' E 135°15'  

Dump ship's entire track history